createdAt,value
2022-11-12T00:00:58.371Z,3.0
2022-11-12T00:03:57.220Z,3.0
2022-11-12T00:06:57.215Z,2.937
2022-11-12T00:09:57.107Z,2.875
2022-11-12T00:12:57.267Z,2.75
2022-11-12T00:15:57.591Z,2.75
2022-11-12T00:18:56.815Z,2.812
2022-11-12T00:21:57.052Z,2.75
2022-11-12T00:24:56.931Z,2.75
2022-11-12T00:27:57.679Z,2.75
2022-11-12T00:30:57.694Z,2.75
2022-11-12T00:33:57.781Z,2.625
2022-11-12T00:36:57.032Z,2.687
2022-11-12T00:39:57.404Z,2.687
2022-11-12T00:42:57.598Z,2.562
2022-11-12T00:45:57.628Z,2.562
2022-11-12T00:48:57.319Z,2.562
2022-11-12T00:51:57.643Z,2.812
2022-11-12T00:54:57.532Z,2.875
2022-11-12T00:57:57.475Z,2.687
2022-11-12T01:00:57.008Z,2.75
2022-11-12T01:03:57.377Z,2.75
2022-11-12T01:06:57.574Z,2.812
2022-11-12T01:09:58.128Z,2.812
2022-11-12T01:12:57.342Z,2.687
2022-11-12T01:15:57.833Z,2.687
2022-11-12T01:18:57.954Z,2.562
2022-11-12T01:21:57.281Z,2.562
2022-11-12T01:24:57.345Z,2.437
2022-11-12T01:27:57.186Z,2.25
2022-11-12T01:30:56.921Z,2.25
2022-11-12T01:33:57.965Z,2.25
2022-11-12T01:36:57.905Z,2.062
2022-11-12T01:39:57.940Z,2.0
2022-11-12T01:42:57.248Z,1.937
2022-11-12T01:45:57.516Z,1.875
2022-11-12T01:48:57.098Z,1.812
2022-11-12T01:51:57.361Z,1.75
2022-11-12T01:54:57.063Z,1.937
2022-11-12T01:57:57.462Z,1.937
2022-11-12T02:00:57.920Z,1.875
2022-11-12T02:03:57.493Z,1.812
2022-11-12T02:06:57.508Z,1.875
2022-11-12T02:09:57.476Z,1.875
2022-11-12T02:12:57.408Z,1.937
2022-11-12T02:15:57.667Z,1.937
2022-11-12T02:18:57.508Z,2.062
2022-11-12T02:21:57.155Z,2.062
2022-11-12T02:24:59.042Z,2.062
2022-11-12T02:27:57.264Z,2.062
2022-11-12T02:30:56.996Z,2.062
2022-11-12T02:33:57.130Z,2.125
2022-11-12T02:36:57.878Z,2.187
2022-11-12T02:39:57.410Z,2.187
2022-11-12T02:42:57.660Z,2.187
2022-11-12T02:45:57.753Z,2.312
2022-11-12T02:48:57.841Z,2.5
2022-11-12T02:51:56.687Z,2.687
2022-11-12T02:54:57.634Z,2.812
2022-11-12T02:57:56.796Z,2.812
2022-11-12T03:00:57.645Z,2.812
2022-11-12T03:03:56.721Z,2.75
2022-11-12T03:06:57.662Z,2.812
2022-11-12T03:09:58.052Z,2.75
2022-11-12T03:12:57.170Z,2.812
2022-11-12T03:15:57.313Z,2.875
2022-11-12T03:18:57.976Z,2.937
2022-11-12T03:21:57.498Z,3.062
2022-11-12T03:24:57.726Z,3.062
2022-11-12T03:27:57.229Z,3.437
2022-11-12T03:30:57.479Z,3.562
2022-11-12T03:33:56.762Z,3.437
2022-11-12T03:36:57.129Z,3.312
2022-11-12T03:39:57.766Z,3.312
2022-11-12T03:42:57.213Z,3.437
2022-11-12T03:45:56.963Z,3.375
2022-11-12T03:48:57.967Z,3.375
2022-11-12T03:51:57.739Z,3.25
2022-11-12T03:54:56.901Z,3.187
2022-11-12T03:57:57.503Z,3.187
2022-11-12T04:00:57.386Z,3.187
2022-11-12T04:03:56.953Z,3.375
2022-11-12T04:06:58.035Z,3.375
2022-11-12T04:09:57.074Z,3.375
2022-11-12T04:12:56.630Z,3.312
2022-11-12T04:15:56.698Z,3.312
2022-11-12T04:18:57.551Z,3.375
2022-11-12T04:21:57.547Z,3.375
2022-11-12T04:24:57.079Z,3.437
2022-11-12T04:27:57.681Z,3.562
2022-11-12T04:30:56.981Z,3.687
2022-11-12T04:33:57.489Z,3.75
2022-11-12T04:36:56.981Z,3.812
2022-11-12T04:39:57.197Z,3.75
2022-11-12T04:42:57.079Z,3.687
2022-11-12T04:45:57.346Z,3.75
2022-11-12T04:48:56.978Z,3.687
2022-11-12T04:51:57.085Z,3.625
2022-11-12T04:54:57.664Z,3.5
2022-11-12T04:58:00.570Z,3.5
2022-11-12T05:00:57.951Z,3.437
2022-11-12T05:03:57.089Z,3.437
2022-11-12T05:06:57.346Z,3.437
2022-11-12T05:09:57.343Z,3.25
2022-11-12T05:12:57.892Z,3.312
2022-11-12T05:16:00.393Z,3.312
2022-11-12T05:18:57.384Z,3.312
2022-11-12T05:21:57.379Z,3.125
2022-11-12T05:24:57.548Z,3.125
2022-11-12T05:27:56.769Z,3.062
2022-11-12T05:30:57.604Z,3.0
2022-11-12T05:33:57.132Z,2.875
2022-11-12T05:36:57.536Z,2.687
2022-11-12T05:39:57.144Z,2.687
2022-11-12T05:42:57.421Z,2.562
2022-11-12T05:45:57.451Z,2.562
2022-11-12T05:48:57.259Z,2.375
2022-11-12T05:51:57.303Z,2.187
2022-11-12T05:54:57.250Z,2.125
2022-11-12T05:57:57.329Z,2.25
2022-11-12T06:00:57.255Z,2.312
2022-11-12T06:03:57.467Z,2.312
2022-11-12T06:06:57.668Z,2.312
2022-11-12T06:09:57.346Z,2.312
2022-11-12T06:12:57.789Z,2.312
2022-11-12T06:15:57.149Z,2.312
2022-11-12T06:18:57.886Z,2.5
2022-11-12T06:21:57.083Z,2.375
2022-11-12T06:24:57.672Z,2.375
2022-11-12T06:27:57.116Z,2.25
2022-11-12T06:30:57.863Z,2.125
2022-11-12T06:33:57.657Z,2.125
2022-11-12T06:36:57.005Z,2.187
2022-11-12T06:39:57.261Z,2.187
2022-11-12T06:42:57.622Z,2.125
2022-11-12T06:45:57.395Z,2.312
2022-11-12T06:48:57.336Z,2.312
2022-11-12T06:51:57.631Z,2.5
2022-11-12T06:54:56.911Z,2.562
2022-11-12T06:57:56.642Z,2.562
2022-11-12T07:00:56.995Z,2.625
2022-11-12T07:03:56.994Z,2.75
2022-11-12T07:06:57.300Z,2.812
2022-11-12T07:09:57.315Z,2.812
2022-11-12T07:12:57.154Z,2.875
2022-11-12T07:15:57.247Z,2.937
2022-11-12T07:19:00.282Z,3.062
2022-11-12T07:21:56.965Z,3.187
2022-11-12T07:24:57.370Z,3.25
2022-11-12T07:27:57.639Z,3.25
2022-11-12T07:30:57.657Z,3.437
2022-11-12T07:33:56.880Z,3.5
2022-11-12T07:36:57.153Z,3.562
2022-11-12T07:39:57.150Z,3.625
2022-11-12T07:42:57.735Z,3.625
2022-11-12T07:45:57.725Z,3.75
2022-11-12T07:48:57.353Z,3.625
2022-11-12T07:51:57.603Z,3.812
2022-11-12T07:54:57.327Z,3.937
2022-11-12T07:57:57.221Z,4.062
2022-11-12T08:00:57.628Z,4.125
2022-11-12T08:03:57.310Z,4.312
2022-11-12T08:06:58.118Z,4.312
2022-11-12T08:09:57.326Z,4.312
2022-11-12T08:12:57.488Z,4.875
2022-11-12T08:15:57.651Z,5.0
2022-11-12T08:18:58.011Z,5.062
2022-11-12T08:21:57.295Z,5.25
2022-11-12T08:24:56.762Z,5.687
2022-11-12T08:27:57.013Z,5.937
2022-11-12T08:30:57.511Z,6.125
2022-11-12T08:33:57.008Z,6.5
2022-11-12T08:36:57.479Z,7.0
2022-11-12T08:39:57.339Z,6.75
2022-11-12T08:42:57.361Z,6.75
2022-11-12T08:45:57.757Z,6.75
2022-11-12T08:48:57.122Z,7.25
2022-11-12T08:51:57.475Z,7.312
2022-11-12T08:54:57.261Z,7.437
2022-11-12T08:57:57.779Z,7.562
2022-11-12T09:00:57.894Z,7.75
2022-11-12T09:03:57.486Z,7.875
2022-11-12T09:06:57.679Z,7.875
2022-11-12T09:09:57.970Z,7.625
2022-11-12T09:12:56.844Z,7.875
2022-11-12T09:15:56.977Z,8.125
2022-11-12T09:18:57.327Z,8.187
2022-11-12T09:21:57.283Z,8.562
2022-11-12T09:24:57.473Z,8.25
2022-11-12T09:27:57.796Z,8.0
2022-11-12T09:30:57.848Z,8.312
2022-11-12T09:33:57.051Z,8.25
2022-11-12T09:36:57.321Z,8.062
2022-11-12T09:39:58.299Z,8.375
2022-11-12T09:42:57.583Z,8.375
2022-11-12T09:46:13.880Z,8.312
2022-11-12T09:48:57.891Z,8.437
2022-11-12T09:51:57.904Z,8.562
2022-11-12T09:54:57.178Z,8.625
2022-11-12T09:57:58.130Z,8.562
2022-11-12T10:00:57.804Z,8.562
2022-11-12T10:03:57.301Z,8.937
2022-11-12T10:06:57.048Z,8.875
2022-11-12T10:09:57.844Z,9.062
2022-11-12T10:12:57.817Z,9.062
2022-11-12T10:15:57.788Z,9.062
2022-11-12T10:18:56.591Z,9.75
2022-11-12T10:21:57.523Z,9.937
2022-11-12T10:24:57.616Z,9.5
2022-11-12T10:27:57.451Z,9.5
2022-11-12T10:30:57.345Z,9.75
2022-11-12T10:33:57.447Z,9.625
2022-11-12T10:36:57.562Z,9.5
2022-11-12T10:39:57.347Z,9.5
2022-11-12T10:42:57.773Z,9.75
2022-11-12T10:45:57.230Z,9.75
2022-11-12T10:48:57.845Z,9.625
2022-11-12T10:51:57.262Z,9.625
2022-11-12T10:54:57.523Z,9.75
2022-11-12T10:57:57.080Z,9.625
2022-11-12T11:00:58.027Z,9.562
2022-11-12T11:04:16.257Z,9.687
2022-11-12T11:06:57.094Z,9.875
2022-11-12T11:09:57.767Z,9.75
2022-11-12T11:12:57.315Z,9.75
2022-11-12T11:15:57.813Z,9.687
2022-11-12T11:18:57.478Z,10.062
2022-11-12T11:21:57.789Z,10.062
2022-11-12T11:24:57.557Z,10.187
2022-11-12T11:27:56.883Z,9.937
2022-11-12T11:30:57.921Z,10.187
2022-11-12T11:33:58.089Z,10.187
2022-11-12T11:36:57.746Z,10.375
2022-11-12T11:39:56.972Z,10.125
2022-11-12T11:42:57.569Z,10.187
2022-11-12T11:45:58.040Z,10.187
2022-11-12T11:48:57.580Z,10.187
2022-11-12T11:51:56.913Z,10.187
2022-11-12T11:54:57.167Z,10.187
2022-11-12T11:57:57.505Z,10.187
2022-11-12T12:00:57.522Z,10.187
2022-11-12T12:03:58.020Z,10.125
2022-11-12T12:06:57.333Z,10.0
2022-11-12T12:09:57.107Z,10.0
2022-11-12T12:12:57.195Z,10.187
2022-11-12T12:15:57.298Z,10.312
2022-11-12T12:18:56.808Z,10.25
2022-11-12T12:21:57.389Z,10.25
2022-11-12T12:24:57.237Z,10.25
2022-11-12T12:27:56.970Z,10.375
2022-11-12T12:30:57.848Z,10.375
2022-11-12T12:33:57.482Z,10.25
2022-11-12T12:36:57.185Z,10.25
2022-11-12T12:39:56.890Z,10.187
2022-11-12T12:42:57.041Z,10.0
2022-11-12T12:45:57.418Z,9.875
2022-11-12T12:48:57.782Z,9.875
2022-11-12T12:51:57.586Z,10.125
2022-11-12T12:54:56.938Z,10.125
2022-11-12T12:57:57.410Z,9.937
2022-11-12T13:00:58.183Z,9.75
2022-11-12T13:03:57.069Z,9.875
2022-11-12T13:06:57.712Z,9.75
2022-11-12T13:09:57.120Z,9.75
2022-11-12T13:12:57.255Z,9.687
2022-11-12T13:15:57.502Z,9.75
2022-11-12T13:18:57.249Z,9.687
2022-11-12T13:21:57.574Z,9.625
2022-11-12T13:24:57.093Z,9.625
2022-11-12T13:27:57.578Z,9.687
2022-11-12T13:30:57.860Z,9.625
2022-11-12T13:33:57.751Z,9.5
2022-11-12T13:36:57.005Z,9.437
2022-11-12T13:39:57.924Z,9.437
2022-11-12T13:42:57.289Z,9.437
2022-11-12T13:45:57.210Z,9.437
2022-11-12T13:48:57.643Z,9.625
2022-11-12T13:51:57.376Z,9.625
2022-11-12T13:54:57.674Z,9.625
2022-11-12T13:57:57.111Z,9.437
2022-11-12T14:00:57.311Z,9.5
2022-11-12T14:03:56.793Z,9.5
2022-11-12T14:06:57.638Z,9.5
2022-11-12T14:09:57.200Z,9.25
2022-11-12T14:12:57.508Z,9.312
2022-11-12T14:15:57.632Z,9.437
2022-11-12T14:18:57.145Z,9.437
2022-11-12T14:21:58.060Z,9.437
2022-11-12T14:24:57.331Z,9.312
2022-11-12T14:27:57.925Z,9.125
2022-11-12T14:30:57.425Z,8.75
2022-11-12T14:33:57.204Z,8.375
2022-11-12T14:36:56.796Z,8.25
2022-11-12T14:39:57.966Z,8.062
2022-11-12T14:42:57.824Z,7.937
2022-11-12T14:45:57.030Z,7.812
2022-11-12T14:48:57.258Z,7.812
2022-11-12T14:51:57.994Z,7.687
2022-11-12T14:54:57.349Z,7.625
2022-11-12T14:57:57.231Z,7.5
2022-11-12T15:00:57.610Z,7.5
2022-11-12T15:03:57.829Z,7.687
2022-11-12T15:06:57.816Z,7.562
2022-11-12T15:09:57.993Z,7.625
2022-11-12T15:12:57.705Z,7.687
2022-11-12T15:15:57.426Z,7.625
2022-11-12T15:18:57.598Z,7.437
2022-11-12T15:21:57.141Z,7.562
2022-11-12T15:24:57.441Z,7.375
2022-11-12T15:27:58.119Z,7.375
2022-11-12T15:30:57.873Z,7.375
2022-11-12T15:33:57.040Z,7.375
2022-11-12T15:36:58.114Z,7.125
2022-11-12T15:39:56.893Z,7.062
2022-11-12T15:42:57.485Z,6.75
2022-11-12T15:45:57.132Z,6.75
2022-11-12T15:48:57.275Z,7.062
2022-11-12T15:51:57.987Z,6.812
2022-11-12T15:54:57.711Z,7.125
2022-11-12T15:57:57.077Z,7.125
2022-11-12T16:00:57.602Z,6.875
2022-11-12T16:03:57.844Z,7.062
2022-11-12T16:06:57.593Z,7.062
2022-11-12T16:09:57.811Z,6.75
2022-11-12T16:12:57.623Z,6.75
2022-11-12T16:15:56.844Z,6.687
2022-11-12T16:18:57.486Z,6.687
2022-11-12T16:21:57.718Z,7.0
2022-11-12T16:24:57.166Z,6.687
2022-11-12T16:27:57.511Z,6.625
2022-11-12T16:30:57.530Z,6.875
2022-11-12T16:33:57.021Z,6.687
2022-11-12T16:36:57.408Z,6.187
2022-11-12T16:39:57.399Z,6.187
2022-11-12T16:42:57.411Z,5.937
2022-11-12T16:45:57.043Z,6.062
2022-11-12T16:48:57.493Z,6.125
2022-11-12T16:51:57.579Z,5.875
2022-11-12T16:55:03.107Z,6.0
2022-11-12T16:57:56.970Z,6.0
2022-11-12T17:00:57.949Z,5.75
2022-11-12T17:03:57.065Z,5.812
2022-11-12T17:06:57.585Z,6.0
2022-11-12T17:09:57.004Z,5.875
2022-11-12T17:12:57.007Z,5.875
2022-11-12T17:15:57.564Z,6.062
2022-11-12T17:18:57.795Z,6.187
2022-11-12T17:21:57.420Z,6.187
2022-11-12T17:24:56.944Z,6.0
2022-11-12T17:27:57.381Z,5.875
2022-11-12T17:30:57.302Z,5.812
2022-11-12T17:33:57.960Z,5.812
2022-11-12T17:36:57.658Z,5.812
2022-11-12T17:39:57.009Z,5.812
2022-11-12T17:42:57.584Z,5.562
2022-11-12T17:45:58.497Z,5.687
2022-11-12T17:48:57.217Z,5.875
2022-11-12T17:51:57.516Z,6.0
2022-11-12T17:54:57.253Z,6.0
2022-11-12T17:57:57.502Z,5.812
2022-11-12T18:01:25.439Z,5.812
2022-11-12T18:03:57.142Z,5.812
2022-11-12T18:06:57.979Z,5.625
2022-11-12T18:09:58.006Z,5.937
2022-11-12T18:12:57.857Z,5.687
2022-11-12T18:15:57.319Z,5.687
2022-11-12T18:18:57.659Z,5.687
2022-11-12T18:21:57.791Z,5.812
2022-11-12T18:24:57.752Z,5.75
2022-11-12T18:27:56.890Z,5.562
2022-11-12T18:30:57.618Z,5.5
2022-11-12T18:33:56.846Z,5.5
2022-11-12T18:36:57.213Z,5.375
2022-11-12T18:39:57.639Z,5.5
2022-11-12T18:42:56.958Z,5.375
2022-11-12T18:45:57.526Z,5.625
2022-11-12T18:48:57.758Z,5.5
2022-11-12T18:51:57.662Z,5.5
2022-11-12T18:54:57.617Z,5.687
2022-11-12T18:57:57.113Z,5.687
2022-11-12T19:00:58.451Z,5.375
2022-11-12T19:03:56.901Z,5.375
2022-11-12T19:06:57.139Z,5.562
2022-11-12T19:09:57.607Z,5.687
2022-11-12T19:12:57.381Z,5.687
2022-11-12T19:15:57.688Z,5.75
2022-11-12T19:18:57.367Z,5.75
2022-11-12T19:21:57.712Z,6.125
2022-11-12T19:24:57.183Z,5.875
2022-11-12T19:27:57.648Z,5.562
2022-11-12T19:30:57.750Z,5.562
2022-11-12T19:33:57.824Z,5.5
2022-11-12T19:37:26.679Z,5.5
2022-11-12T19:39:57.579Z,5.5
2022-11-12T19:42:56.995Z,5.125
2022-11-12T19:45:57.291Z,5.25
2022-11-12T19:48:57.602Z,5.25
2022-11-12T19:51:57.116Z,5.437
2022-11-12T19:54:57.557Z,5.75
2022-11-12T19:57:56.892Z,6.062
2022-11-12T20:00:57.830Z,5.937
2022-11-12T20:03:57.875Z,5.687
2022-11-12T20:06:57.584Z,5.937
2022-11-12T20:10:00.890Z,5.875
2022-11-12T20:12:57.558Z,5.875
2022-11-12T20:15:57.513Z,5.937
2022-11-12T20:18:57.137Z,5.437
2022-11-12T20:21:57.163Z,5.437
2022-11-12T20:24:57.412Z,5.437
2022-11-12T20:27:58.221Z,5.875
2022-11-12T20:30:57.460Z,5.625
2022-11-12T20:33:57.544Z,5.75
2022-11-12T20:36:57.935Z,5.75
2022-11-12T20:39:58.925Z,5.5
2022-11-12T20:42:57.286Z,5.312
2022-11-12T20:45:57.242Z,5.312
2022-11-12T20:48:57.255Z,5.562
2022-11-12T20:51:57.104Z,5.687
2022-11-12T20:54:57.357Z,5.625
2022-11-12T20:57:57.286Z,5.5
2022-11-12T21:00:57.817Z,5.312
2022-11-12T21:03:57.879Z,5.312
2022-11-12T21:07:02.310Z,5.187
2022-11-12T21:09:57.840Z,5.187
2022-11-12T21:12:57.438Z,5.125
2022-11-12T21:15:57.054Z,5.0
2022-11-12T21:18:57.369Z,5.0
2022-11-12T21:21:57.472Z,4.75
2022-11-12T21:24:57.515Z,4.5
2022-11-12T21:27:57.044Z,4.312
2022-11-12T21:30:57.789Z,4.0
2022-11-12T21:33:57.720Z,4.062
2022-11-12T21:36:56.862Z,3.875
2022-11-12T21:39:57.520Z,3.75
2022-11-12T21:42:57.914Z,3.562
2022-11-12T21:45:57.285Z,3.5
2022-11-12T21:48:57.207Z,3.5
2022-11-12T21:51:57.179Z,3.437
2022-11-12T21:54:57.979Z,3.375
2022-11-12T21:57:57.553Z,3.25
2022-11-12T22:00:58.250Z,3.125
2022-11-12T22:03:57.128Z,3.062
2022-11-12T22:06:57.353Z,3.062
2022-11-12T22:09:58.453Z,3.062
2022-11-12T22:15:57.910Z,2.75
2022-11-12T22:18:56.888Z,2.562
2022-11-12T22:21:57.693Z,2.562
2022-11-12T22:24:57.731Z,2.312
2022-11-12T22:27:56.747Z,2.312
2022-11-12T22:30:57.614Z,2.25
2022-11-12T22:33:57.510Z,2.25
2022-11-12T22:36:58.069Z,2.25
2022-11-12T22:39:57.212Z,2.187
2022-11-12T22:42:57.360Z,2.25
2022-11-12T22:45:57.405Z,2.187
2022-11-12T22:48:57.504Z,2.125
2022-11-12T22:51:57.855Z,2.0
2022-11-12T22:54:57.328Z,1.937
2022-11-12T22:57:57.807Z,1.875
2022-11-12T23:00:57.920Z,1.75
2022-11-12T23:03:56.665Z,1.75
2022-11-12T23:06:57.189Z,1.75
2022-11-12T23:09:57.102Z,1.812
2022-11-12T23:12:57.310Z,1.812
2022-11-12T23:15:57.482Z,1.812
2022-11-12T23:18:57.675Z,1.812
2022-11-12T23:21:56.968Z,1.75
2022-11-12T23:24:56.908Z,1.75
2022-11-12T23:27:56.964Z,1.687
2022-11-12T23:30:59.946Z,1.687
2022-11-12T23:33:56.879Z,1.687
2022-11-12T23:36:57.474Z,1.625
2022-11-12T23:39:56.938Z,1.562
2022-11-12T23:42:57.713Z,1.562
2022-11-12T23:45:56.740Z,1.562
2022-11-12T23:48:57.334Z,1.5
2022-11-12T23:51:57.415Z,1.562
2022-11-12T23:54:57.021Z,1.687
2022-11-12T23:57:57.272Z,1.75
